ブラジリア の空港の天気 - METARとTAF

ブラジリア国際空港 ( SBBR / BSB ) - ブラジル ブラジリア
飛行場実況気象(Metar)
観測時間01/23 06:00 BRST (01/23 08:00 UTC)
風向・風速不定 1m/s
視程10km以上
天気現象
なし
気温17℃
湿度72%
気圧1016hPa
METARSBBR 230800Z VRB02KT CAVOK 17/12 Q1016
過去の天気等 Google飛行場航空写真 Wunderground天気予報

過去48時間のMETAR

飛行場予報(TAF)
発表時間: 1/23 02:00 BRST (1/23 04:00 UTC)
予報対象時間: 23日4時 BRST ~ 24日4時 BRST
風向・風速東北東 4m/s
視程10km以上
なし
23日11時 BRST から
風向・風速北東 6m/s
視程10km以上
なし
23日13時 BRST から
風向・風速北東 7m/s
視程10km以上
全天の4割程度の雲 雲底高度 1,220m
23日20時 BRST から
風向・風速東南東 3m/s
視程10km以上
なし
TAF SBBR 230400Z 2306/2406 07007KT CAVOK TN19/2308Z TX31/2317Z
FM231300 05011KT CAVOK
FM231500 04013KT 9999 SCT040
FM232200 11005KT CAVOK RMK PDF